| time (UTC) | temp F | wind direction | speed knots | gust knots | rain 1hr in | rain 24hr in | rain mn in | humidity % | barometer mb |
| 20260504202104 | 62 | 175 | 8.7 | 20.0 | 0.00 | 0.00 | 0.00 | 65 | 1010.4 |
| 20260504201604 | 62 | 186 | 10.4 | 20.0 | 0.00 | 0.00 | 0.00 | 64 | 1010.4 |
| 20260504201105 | 62 | 187 | 7.8 | 20.9 | 0.00 | 0.00 | 0.00 | 65 | 1010.5 |
| 20260504200605 | 62 | 188 | 10.4 | 20.9 | 0.00 | 0.00 | 0.00 | 64 | 1010.5 |
| 20260504200105 | 62 | 196 | 10.4 | 20.9 | 0.00 | 0.00 | 0.00 | 64 | 1010.6 |
| 20260504195605 | 62 | 174 | 9.6 | 17.4 | 0.00 | 0.00 | 0.00 | 64 | 1010.5 |
| 20260504195104 | 62 | 215 | 8.7 | 17.4 | 0.00 | 0.00 | 0.00 | 64 | 1010.6 |
| 20260504194604 | 63 | 184 | 7.8 | 20.0 | 0.00 | 0.00 | 0.00 | 63 | 1010.6 |
| 20260504194105 | 63 | 188 | 7.8 | 21.7 | 0.00 | 0.00 | 0.00 | 62 | 1010.7 |
| 20260504193606 | 63 | 189 | 7.0 | 21.7 | 0.00 | 0.00 | 0.00 | 62 | 1010.7 |
| 20260504193104 | 64 | 172 | 9.6 | 20.0 | 0.00 | 0.00 | 0.00 | 61 | 1010.7 |
| 20260504192605 | 64 | 193 | 10.4 | 17.4 | 0.00 | 0.00 | 0.00 | 60 | 1010.8 |
| 20260504192104 | 64 | 224 | 8.7 | 15.6 | 0.00 | 0.00 | 0.00 | 59 | 1010.8 |
| 20260504191605 | 65 | 200 | 6.1 | 19.1 | 0.00 | 0.00 | 0.00 | 61 | 1010.9 |
| 20260504191105 | 64 | 196 | 5.2 | 19.1 | 0.00 | 0.00 | 0.00 | 61 | 1011.0 |
| 20260504190604 | 64 | 187 | 7.8 | 17.4 | 0.00 | 0.00 | 0.00 | 60 | 1011.0 |
| 20260504190105 | 65 | 205 | 7.0 | 15.6 | 0.00 | 0.00 | 0.00 | 59 | 1011.1 |
| 20260504185606 | 65 | 193 | 7.0 | 17.4 | 0.00 | 0.00 | 0.00 | 60 | 1011.3 |
| 20260504185105 | 65 | 198 | 8.7 | 17.4 | 0.00 | 0.00 | 0.00 | 59 | 1011.2 |
| 20260504184605 | 65 | 179 | 7.8 | 14.8 | 0.00 | 0.00 | 0.00 | 59 | 1011.3 |
| 20260504184104 | 65 | 181 | 4.3 | 19.1 | 0.00 | 0.00 | 0.00 | 60 | 1011.3 |
| 20260504183605 | 65 | 176 | 7.8 | 19.1 | 0.00 | 0.00 | 0.00 | 58 | 1011.4 |
| 20260504183104 | 65 | 188 | 8.7 | 13.9 | 0.00 | 0.00 | 0.00 | 59 | 1011.4 |
| 20260504182605 | 66 | 199 | 4.3 | 13.9 | 0.00 | 0.00 | 0.00 | 58 | 1011.4 |
| 20260504182104 | 65 | 217 | 6.1 | 13.9 | 0.00 | 0.00 | 0.00 | 58 | 1011.5 |
| 20260504181605 | 65 | 179 | 7.8 | 13.9 | 0.00 | 0.00 | 0.00 | 59 | 1011.5 |
| 20260504181105 | 65 | 185 | 7.0 | 13.9 | 0.00 | 0.00 | 0.00 | 59 | 1011.6 |
| 20260504180604 | 65 | 186 | 7.8 | 13.9 | 0.00 | 0.00 | 0.00 | 59 | 1011.7 |
| 20260504180106 | 65 | 187 | 7.0 | 13.9 | 0.00 | 0.00 | 0.00 | 59 | 1011.7 |
| 20260504175605 | 65 | 189 | 7.8 | 13.9 | 0.00 | 0.00 | 0.00 | 59 | 1011.7 |
| 20260504175104 | 66 | 183 | 6.1 | 13.0 | 0.00 | 0.00 | 0.00 | 58 | 1011.8 |
| 20260504174604 | 65 | 181 | 6.1 | 13.0 | 0.00 | 0.00 | 0.00 | 59 | 1011.7 |
| 20260504174105 | 65 | 175 | 8.7 | 13.9 | 0.00 | 0.00 | 0.00 | 60 | 1011.8 |
| 20260504173605 | 65 | 178 | 8.7 | 13.9 | 0.00 | 0.00 | 0.00 | 60 | 1011.9 |
| 20260504173104 | 65 | 180 | 6.1 | 14.8 | 0.00 | 0.00 | 0.00 | 60 | 1011.9 |
| 20260504172605 | 65 | 178 | 5.2 | 14.8 | 0.00 | 0.00 | 0.00 | 59 | 1011.9 |
| 20260504172104 | 66 | 181 | 7.8 | 13.9 | 0.00 | 0.00 | 0.00 | 58 | 1012.0 |
| 20260504171605 | 65 | 189 | 7.8 | 13.9 | 0.00 | 0.00 | 0.00 | 57 | 1012.0 |
| 20260504171104 | 67 | 205 | 4.3 | 12.2 | 0.00 | 0.00 | 0.00 | 55 | 1012.0 |
| 20260504170605 | 65 | 195 | 6.1 | 13.9 | 0.00 | 0.00 | 0.00 | 55 | 1012.1 |
| 20260504170106 | 65 | 198 | 7.0 | 13.9 | 0.00 | 0.00 | 0.00 | 55 | 1012.2 |
| 20260504160105 | 65 | 165 | 5.2 | 14.8 | 0.00 | 0.00 | 0.00 | 51 | 1012.8 |
| 20260504151104 | 66 | 201 | 5.2 | 12.2 | 0.00 | 0.00 | 0.00 | 44 | 1013.4 |
| 20260504150605 | 65 | 189 | 3.5 | 12.2 | 0.00 | 0.00 | 0.00 | 44 | 1013.5 |
| 20260504150105 | 65 | 149 | 4.3 | 14.8 | 0.00 | 0.00 | 0.00 | 45 | 1013.5 |
| 20260504141104 | 62 | 253 | 7.0 | 14.8 | 0.00 | 0.00 | 0.00 | 48 | 1013.6 |
| 20260504140604 | 62 | 258 | 9.6 | 14.8 | 0.00 | 0.00 | 0.00 | 47 | 1013.7 |
| 20260504140106 | 61 | 3 | 4.3 | 12.2 | 0.00 | 0.00 | 0.00 | 49 | 1013.7 |
| 20260504130605 | 58 | 273 | 4.3 | 14.8 | 0.00 | 0.00 | 0.00 | 59 | 1014.2 |
| 20260504130106 | 57 | 305 | 7.8 | 14.8 | 0.00 | 0.00 | 0.00 | 59 | 1014.3 |
| 20260504120106 | 54 | 238 | 5.2 | 12.2 | 0.00 | 0.00 | 0.00 | 63 | 1014.5 |
| 20260504110605 | 51 | 244 | 4.3 | 7.0 | 0.00 | 0.00 | 0.00 | 66 | 1014.6 |
| 20260504110106 | 51 | 247 | 1.7 | 5.2 | 0.00 | 0.00 | 0.00 | 67 | 1014.6 |
| 20260504100605 | 51 | 239 | 4.3 | 10.4 | 0.00 | 0.00 | 0.00 | 65 | 1014.4 |
| 20260504100106 | 51 | 212 | 5.2 | 10.4 | 0.00 | 0.00 | 0.00 | 65 | 1014.4 |
| 20260504090106 | 51 | 274 | 5.2 | 13.0 | 0.00 | 0.00 | 0.00 | 63 | 1014.0 |
| 20260504081605 | 51 | 254 | 3.5 | 10.4 | 0.00 | 0.00 | 0.00 | 59 | 1013.8 |
| 20260504081105 | 51 | 261 | 4.3 | 10.4 | 0.00 | 0.00 | 0.00 | 60 | 1013.8 |
| 20260504080605 | 51 | 269 | 2.6 | 12.2 | 0.00 | 0.00 | 0.00 | 61 | 1013.7 |
| 20260504080106 | 51 | 275 | 5.2 | 12.2 | 0.00 | 0.00 | 0.00 | 63 | 1013.7 |
| 20260504070106 | 52 | 257 | 4.3 | 7.8 | 0.00 | 0.00 | 0.00 | 59 | 1013.3 |
| 20260504060106 | 52 | 246 | 4.3 | 10.4 | 0.00 | 0.00 | 0.00 | 57 | 1013.3 |
| 20260504050605 | 53 | 255 | 5.2 | 10.4 | 0.00 | 0.00 | 0.00 | 60 | 1013.0 |
| 20260504050106 | 53 | 228 | 4.3 | 10.4 | 0.00 | 0.00 | 0.00 | 58 | 1013.0 |
| 20260504045605 | 53 | 263 | 4.3 | 10.4 | 0.00 | 0.00 | 0.00 | 57 | 1013.0 |
| 20260504045105 | 53 | 256 | 4.3 | 10.4 | 0.00 | 0.00 | 0.00 | 58 | 1013.0 |
| 20260504044605 | 53 | 257 | 4.3 | 10.4 | 0.00 | 0.00 | 0.00 | 59 | 1012.9 |
| 20260504044105 | 53 | 305 | 3.5 | 7.0 | 0.00 | 0.00 | 0.00 | 60 | 1012.9 |
| 20260504043605 | 53 | 260 | 2.6 | 7.0 | 0.00 | 0.00 | 0.00 | 60 | 1012.9 |
| 20260504043105 | 53 | 273 | 2.6 | 7.0 | 0.00 | 0.00 | 0.00 | 60 | 1012.9 |
| 20260504042605 | 53 | 274 | 3.5 | 7.0 | 0.00 | 0.00 | 0.00 | 59 | 1012.9 |
| 20260504042105 | 53 | 272 | 4.3 | 7.8 | 0.00 | 0.00 | 0.00 | 58 | 1012.9 |
| 20260504041605 | 53 | 255 | 4.3 | 10.4 | 0.00 | 0.00 | 0.00 | 57 | 1012.8 |
| 20260504041105 | 53 | 243 | 4.3 | 10.4 | 0.00 | 0.00 | 0.00 | 56 | 1012.8 |
| 20260504040605 | 53 | 253 | 4.3 | 7.8 | 0.00 | 0.00 | 0.00 | 56 | 1012.8 |
| 20260504040106 | 53 | 250 | 2.6 | 10.4 | 0.00 | 0.00 | 0.00 | 56 | 1012.8 |
| 20260504035605 | 54 | 251 | 3.5 | 10.4 | 0.00 | 0.00 | 0.00 | 55 | 1012.7 |
| 20260504035105 | 54 | 256 | 5.2 | 10.4 | 0.00 | 0.00 | 0.00 | 54 | 1012.7 |
| 20260504034605 | 54 | 199 | 3.5 | 8.7 | 0.00 | 0.00 | 0.00 | 53 | 1012.8 |
| 20260504034105 | 54 | 244 | 4.3 | 8.7 | 0.00 | 0.00 | 0.00 | 53 | 1012.7 |
| 20260504033605 | 54 | 302 | 4.3 | 6.1 | 0.00 | 0.00 | 0.00 | 52 | 1012.6 |
| 20260504033105 | 54 | 234 | 2.6 | 7.0 | 0.00 | 0.00 | 0.00 | 52 | 1012.6 |
| 20260504032605 | 54 | 247 | 4.3 | 7.0 | 0.00 | 0.00 | 0.00 | 52 | 1012.5 |
| 20260504032105 | 54 | 228 | 2.6 | 6.1 | 0.00 | 0.00 | 0.00 | 52 | 1012.6 |
| 20260504031605 | 54 | 216 | 1.7 | 6.1 | 0.00 | 0.00 | 0.00 | 52 | 1012.6 |
| 20260504031105 | 54 | 232 | 3.5 | 6.1 | 0.00 | 0.00 | 0.00 | 52 | 1012.5 |
| 20260504030605 | 53 | 234 | 1.7 | 6.1 | 0.00 | 0.00 | 0.00 | 54 | 1012.5 |
| 20260504030106 | 54 | 214 | 1.7 | 7.8 | 0.00 | 0.00 | 0.00 | 55 | 1012.5 |
| 20260504025605 | 54 | 238 | 2.6 | 7.8 | 0.00 | 0.00 | 0.00 | 56 | 1012.5 |
| 20260504025105 | 54 | 252 | 1.7 | 6.1 | 0.00 | 0.00 | 0.00 | 56 | 1012.5 |
| 20260504024605 | 54 | 266 | 2.6 | 6.1 | 0.00 | 0.00 | 0.00 | 57 | 1012.5 |
| 20260504024105 | 54 | 251 | 1.7 | 7.0 | 0.00 | 0.00 | 0.00 | 57 | 1012.6 |
| 20260504023605 | 54 | 249 | 2.6 | 7.0 | 0.00 | 0.00 | 0.00 | 56 | 1012.6 |
| 20260504023105 | 54 | 230 | 2.6 | 6.1 | 0.00 | 0.00 | 0.00 | 55 | 1012.6 |
| 20260504022605 | 54 | 241 | 2.6 | 6.1 | 0.00 | 0.00 | 0.00 | 54 | 1012.6 |
| 20260504022105 | 54 | 257 | 1.7 | 6.1 | 0.00 | 0.00 | 0.00 | 52 | 1012.6 |
| 20260504021605 | 54 | 231 | 3.5 | 6.1 | 0.00 | 0.00 | 0.00 | 53 | 1012.6 |
| 20260504021105 | 54 | 254 | 0.9 | 4.3 | 0.00 | 0.00 | 0.00 | 53 | 1012.6 |
| 20260504020605 | 54 | 214 | 1.7 | 4.3 | 0.00 | 0.00 | 0.00 | 53 | 1012.6 |
| 20260504020106 | 53 | 214 | 1.7 | 2.6 | 0.00 | 0.00 | 0.00 | 51 | 1012.5 |
| 20260504015605 | 53 | 227 | 1.7 | 2.6 | 0.00 | 0.00 | 0.00 | 50 | 1012.5 |
| 20260504015105 | 53 | 243 | 1.7 | 2.6 | 0.00 | 0.00 | 0.00 | 49 | 1012.4 |
| 20260504014605 | 54 | 227 | 1.7 | 2.6 | 0.00 | 0.00 | 0.00 | 48 | 1012.4 |
| 20260504014105 | 54 | 227 | 0.9 | 2.6 | 0.00 | 0.00 | 0.00 | 47 | 1012.4 |
| 20260504013605 | 54 | 227 | 0.9 | 2.6 | 0.00 | 0.00 | 0.00 | 46 | 1012.4 |
| 20260504013105 | 54 | 238 | 0.9 | 2.6 | 0.00 | 0.00 | 0.00 | 46 | 1012.3 |
| 20260504012605 | 54 | 209 | 0.9 | 2.6 | 0.00 | 0.00 | 0.00 | 45 | 1012.2 |
| 20260504012105 | 55 | 217 | 1.7 | 2.6 | 0.00 | 0.00 | 0.00 | 43 | 1012.1 |
| 20260504011605 | 55 | 263 | 0.9 | 2.6 | 0.00 | 0.00 | 0.00 | 41 | 1012.1 |
| 20260504011105 | 55 | 263 | 0.9 | 2.6 | 0.00 | 0.00 | 0.00 | 40 | 1012.0 |
| 20260504010605 | 56 | 247 | 0.9 | 2.6 | 0.00 | 0.00 | 0.00 | 40 | 1011.9 |
| 20260504010106 | 56 | 259 | 0.9 | 5.2 | 0.00 | 0.00 | 0.00 | 38 | 1011.9 |
| 20260504005605 | 56 | 259 | 0.9 | 5.2 | 0.00 | 0.00 | 0.00 | 36 | 1011.9 |
| 20260504005105 | 56 | 244 | 2.6 | 2.6 | 0.00 | 0.00 | 0.00 | 34 | 1011.8 |
| 20260504004605 | 57 | 238 | 1.7 | 2.6 | 0.00 | 0.00 | 0.00 | 33 | 1011.8 |
| 20260504004105 | 57 | 284 | 0.9 | 2.6 | 0.00 | 0.00 | 0.00 | 33 | 1011.7 |
| 20260504003605 | 57 | 277 | 1.7 | 2.6 | 0.00 | 0.00 | 0.00 | 32 | 1011.6 |
| 20260504003105 | 57 | 290 | 1.7 | 2.6 | 0.00 | 0.00 | 0.00 | 32 | 1011.5 |
| 20260504002605 | 58 | 302 | 1.7 | 2.6 | 0.00 | 0.00 | 0.00 | 31 | 1011.4 |
| 20260504002105 | 58 | 282 | 1.7 | 7.0 | 0.00 | 0.00 | 0.00 | 30 | 1011.3 |
| 20260504001606 | 58 | 274 | 1.7 | 8.7 | 0.00 | 0.00 | 0.00 | 30 | 1011.3 |
| 20260504001105 | 58 | 314 | 1.7 | 8.7 | 0.00 | 0.00 | 0.00 | 30 | 1011.2 |
| 20260504000605 | 58 | 290 | 1.7 | 7.8 | 0.00 | 0.00 | 0.00 | 30 | 1011.1 |
| 20260504000106 | 58 | 258 | 1.7 | 8.7 | 0.00 | 0.00 | 0.00 | 30 | 1011.1 |
| 20260503235605 | 59 | 300 | 5.2 | 8.7 | 0.00 | 0.00 | 0.00 | 29 | 1011.0 |
| 20260503235105 | 59 | 297 | 5.2 | 8.7 | 0.00 | 0.00 | 0.00 | 29 | 1010.9 |
| 20260503234605 | 59 | 290 | 4.3 | 8.7 | 0.00 | 0.00 | 0.00 | 28 | 1010.9 |
| 20260503234105 | 59 | 289 | 3.5 | 10.4 | 0.00 | 0.00 | 0.00 | 28 | 1010.9 |
| 20260503233605 | 59 | 278 | 3.5 | 10.4 | 0.00 | 0.00 | 0.00 | 28 | 1010.8 |
| 20260503233105 | 59 | 332 | 4.3 | 10.4 | 0.00 | 0.00 | 0.00 | 28 | 1010.8 |
| 20260503232605 | 59 | 304 | 5.2 | 11.3 | 0.00 | 0.00 | 0.00 | 28 | 1010.7 |
| 20260503232105 | 60 | 331 | 6.1 | 15.6 | 0.00 | 0.00 | 0.00 | 27 | 1010.6 |
| 20260503231605 | 60 | 317 | 7.8 | 15.6 | 0.00 | 0.00 | 0.00 | 27 | 1010.6 |
| 20260503231105 | 60 | 317 | 7.8 | 14.8 | 0.00 | 0.00 | 0.00 | 27 | 1010.6 |
| 20260503230605 | 60 | 299 | 6.1 | 14.8 | 0.00 | 0.00 | 0.00 | 27 | 1010.5 |
| 20260503230106 | 60 | 292 | 5.2 | 13.9 | 0.00 | 0.00 | 0.00 | 27 | 1010.5 |
| 20260503225605 | 60 | 298 | 5.2 | 13.9 | 0.00 | 0.00 | 0.00 | 26 | 1010.5 |
| 20260503225105 | 60 | 314 | 5.2 | 13.0 | 0.00 | 0.00 | 0.00 | 26 | 1010.5 |
| 20260503224605 | 61 | 325 | 4.3 | 10.4 | 0.00 | 0.00 | 0.00 | 26 | 1010.6 |
| 20260503224105 | 61 | 319 | 3.5 | 12.2 | 0.00 | 0.00 | 0.00 | 26 | 1010.4 |
| 20260503223605 | 61 | 285 | 4.3 | 13.0 | 0.00 | 0.00 | 0.00 | 26 | 1010.4 |
| 20260503223105 | 61 | 292 | 3.5 | 14.8 | 0.00 | 0.00 | 0.00 | 26 | 1010.4 |
| 20260503222605 | 61 | 302 | 6.1 | 14.8 | 0.00 | 0.00 | 0.00 | 26 | 1010.3 |
| 20260503222105 | 61 | 307 | 4.3 | 14.8 | 0.00 | 0.00 | 0.00 | 26 | 1010.3 |
| 20260503221605 | 61 | 295 | 6.1 | 13.0 | 0.00 | 0.00 | 0.00 | 25 | 1010.4 |
| 20260503221105 | 61 | 295 | 4.3 | 17.4 | 0.00 | 0.00 | 0.00 | 26 | 1010.4 |
| 20260503220605 | 61 | 318 | 5.2 | 18.2 | 0.00 | 0.00 | 0.00 | 26 | 1010.4 |
| 20260503220106 | 61 | 343 | 7.8 | 18.2 | 0.00 | 0.00 | 0.00 | 26 | 1010.5 |
| 20260503215605 | 61 | 289 | 10.4 | 15.6 | 0.00 | 0.00 | 0.00 | 26 | 1010.4 |
| 20260503215105 | 61 | 314 | 8.7 | 14.8 | 0.00 | 0.00 | 0.00 | 26 | 1010.4 |
| 20260503214605 | 61 | 328 | 5.2 | 15.6 | 0.00 | 0.00 | 0.00 | 27 | 1010.4 |
| 20260503214105 | 61 | 303 | 8.7 | 20.0 | 0.00 | 0.00 | 0.00 | 26 | 1010.4 |
| 20260503213605 | 61 | 304 | 8.7 | 20.0 | 0.00 | 0.00 | 0.00 | 27 | 1010.4 |
| 20260503213105 | 61 | 312 | 7.8 | 20.0 | 0.00 | 0.00 | 0.00 | 26 | 1010.3 |
| 20260503212605 | 61 | 312 | 11.3 | 20.0 | 0.00 | 0.00 | 0.00 | 26 | 1010.3 |
| 20260503212105 | 61 | 270 | 12.2 | 20.0 | 0.00 | 0.00 | 0.00 | 26 | 1010.1 |
| 20260503211607 | 61 | 319 | 7.0 | 15.6 | 0.00 | 0.00 | 0.00 | 27 | 1010.2 |
| 20260503211105 | 61 | 295 | 6.1 | 17.4 | 0.00 | 0.00 | 0.00 | 27 | 1010.1 |
| 20260503210605 | 61 | 335 | 8.7 | 17.4 | 0.00 | 0.00 | 0.00 | 27 | 1010.1 |
| 20260503210106 | 61 | 332 | 6.1 | 17.4 | 0.00 | 0.00 | 0.00 | 27 | 1010.0 |
| 20260503205605 | 60 | 11 | 6.1 | 20.0 | 0.00 | 0.00 | 0.00 | 27 | 1010.1 |
| 20260503205105 | 60 | 286 | 8.7 | 20.0 | 0.00 | 0.00 | 0.00 | 27 | 1010.1 |
| 20260503204605 | 60 | 293 | 11.3 | 24.3 | 0.00 | 0.00 | 0.00 | 27 | 1010.1 |
| 20260503204105 | 60 | 306 | 10.4 | 24.3 | 0.00 | 0.00 | 0.00 | 27 | 1010.2 |
| 20260503203605 | 60 | 325 | 7.0 | 19.1 | 0.00 | 0.00 | 0.00 | 28 | 1010.1 |
| 20260503203105 | 60 | 324 | 6.1 | 19.1 | 0.00 | 0.00 | 0.00 | 28 | 1010.1 |
| 20260503202605 | 60 | 311 | 8.7 | 17.4 | 0.00 | 0.00 | 0.00 | 28 | 1010.2 |